< < Back
Terminal Aerodrome Forecast


Current Version              Previous Versions:   1  2  3  4  5  6  7  8  9  

Terminal Aerodrome Forecast

756
FTUS42 KCAE 210200 AAA
TAFCAE
TAF AMD
KCAE 210234Z 2103/2124 01005KT P6SM BKN060
     FM210400 01005KT P6SM SCT060
     FM211400 02008KT P6SM SCT250=

Latest METAR

989
SAUS80 KWBC 211200
MTRCAE
METAR KCAE 211156Z 36006KT 10SM CLR 12/04 A3016 RMK AO2 SLP212 T01170044
10144 20094 53013


USA.gov is the U.S. government's official web portal to all federal, state and local government web resources and services.